sensor_id;sensor_type;location;lat;lon;timestamp;pressure;altitude;pressure_sealevel;temperature;humidity
63493;BME280;49638;47.526;10.028;2023-04-25T00:02:07;91112.31;;;5.91;86.72
63493;BME280;49638;47.526;10.028;2023-04-25T00:05:08;91101.50;;;5.88;86.59
63493;BME280;49638;47.526;10.028;2023-04-25T00:08:09;91104.09;;;5.88;86.81
63493;BME280;49638;47.526;10.028;2023-04-25T00:11:09;91106.66;;;5.95;86.69
63493;BME280;49638;47.526;10.028;2023-04-25T00:14:10;91112.44;;;5.97;86.58
63493;BME280;49638;47.526;10.028;2023-04-25T00:17:10;91105.25;;;5.92;86.35
63493;BME280;49638;47.526;10.028;2023-04-25T00:20:11;91100.00;;;5.92;86.31
63493;BME280;49638;47.526;10.028;2023-04-25T00:23:13;91112.69;;;5.95;86.29
63493;BME280;49638;47.526;10.028;2023-04-25T00:26:18;91112.09;;;5.93;86.78
63493;BME280;49638;47.526;10.028;2023-04-25T00:29:19;91103.53;;;5.86;87.24
63493;BME280;49638;47.526;10.028;2023-04-25T00:32:19;91109.56;;;5.86;87.27
63493;BME280;49638;47.526;10.028;2023-04-25T00:35:19;91095.19;;;5.77;87.44
63493;BME280;49638;47.526;10.028;2023-04-25T00:38:19;91097.72;;;5.84;87.54
63493;BME280;49638;47.526;10.028;2023-04-25T00:41:20;91103.78;;;5.84;87.65
63493;BME280;49638;47.526;10.028;2023-04-25T00:44:21;91082.91;;;5.78;87.67
63493;BME280;49638;47.526;10.028;2023-04-25T00:47:21;91083.38;;;5.75;87.61
63493;BME280;49638;47.526;10.028;2023-04-25T00:50:23;91087.34;;;5.77;87.17
63493;BME280;49638;47.526;10.028;2023-04-25T00:53:25;91076.06;;;5.77;87.73
63493;BME280;49638;47.526;10.028;2023-04-25T00:56:25;91068.88;;;5.72;87.80
63493;BME280;49638;47.526;10.028;2023-04-25T00:59:26;91076.06;;;5.77;87.89
63493;BME280;49638;47.526;10.028;2023-04-25T01:02:28;91080.28;;;5.78;87.94
63493;BME280;49638;47.526;10.028;2023-04-25T01:05:29;91089.41;;;5.75;88.04
63493;BME280;49638;47.526;10.028;2023-04-25T01:08:29;91089.53;;;5.68;88.18
63493;BME280;49638;47.526;10.028;2023-04-25T01:11:30;91070.25;;;5.63;88.48
63493;BME280;49638;47.526;10.028;2023-04-25T01:14:30;91073.13;;;5.61;88.25
63493;BME280;49638;47.526;10.028;2023-04-25T01:17:31;91078.25;;;5.68;88.20
63493;BME280;49638;47.526;10.028;2023-04-25T01:20:33;91077.44;;;5.67;87.55
63493;BME280;49638;47.526;10.028;2023-04-25T01:23:33;91073.78;;;5.68;87.49
63493;BME280;49638;47.526;10.028;2023-04-25T01:26:34;91077.78;;;5.71;86.87
63493;BME280;49638;47.526;10.028;2023-04-25T01:29:36;91064.88;;;5.69;86.59
63493;BME280;49638;47.526;10.028;2023-04-25T01:32:36;91061.47;;;5.69;86.16
63493;BME280;49638;47.526;10.028;2023-04-25T01:35:39;91074.00;;;5.79;85.97
63493;BME280;49638;47.526;10.028;2023-04-25T01:38:40;91056.00;;;5.70;86.14
63493;BME280;49638;47.526;10.028;2023-04-25T01:41:41;91071.47;;;5.84;85.82
63493;BME280;49638;47.526;10.028;2023-04-25T01:44:41;91062.72;;;5.78;85.37
63493;BME280;49638;47.526;10.028;2023-04-25T01:47:42;91068.06;;;5.83;85.42
63493;BME280;49638;47.526;10.028;2023-04-25T01:50:43;91063.84;;;5.82;85.19
63493;BME280;49638;47.526;10.028;2023-04-25T01:53:44;91069.44;;;5.86;85.02
63493;BME280;49638;47.526;10.028;2023-04-25T01:56:50;91077.31;;;5.86;84.42
63493;BME280;49638;47.526;10.028;2023-04-25T01:59:50;91059.75;;;5.86;84.20
63493;BME280;49638;47.526;10.028;2023-04-25T02:02:51;91058.38;;;5.84;84.14
63493;BME280;49638;47.526;10.028;2023-04-25T02:05:53;91050.63;;;5.77;83.73
63493;BME280;49638;47.526;10.028;2023-04-25T02:08:53;91057.38;;;5.85;83.23
63493;BME280;49638;47.526;10.028;2023-04-25T02:11:53;91052.34;;;5.83;83.27
63493;BME280;49638;47.526;10.028;2023-04-25T02:14:54;91057.25;;;5.80;83.34
63493;BME280;49638;47.526;10.028;2023-04-25T02:17:54;91061.31;;;5.87;83.09
63493;BME280;49638;47.526;10.028;2023-04-25T02:20:55;91060.19;;;5.83;82.78
63493;BME280;49638;47.526;10.028;2023-04-25T02:23:55;91054.97;;;5.83;83.16
63493;BME280;49638;47.526;10.028;2023-04-25T02:26:56;91050.88;;;5.76;83.21
63493;BME280;49638;47.526;10.028;2023-04-25T02:29:56;91053.03;;;5.79;82.48
63493;BME280;49638;47.526;10.028;2023-04-25T02:32:56;91045.88;;;5.74;82.31
63493;BME280;49638;47.526;10.028;2023-04-25T02:35:57;91031.72;;;5.75;82.15
63493;BME280;49638;47.526;10.028;2023-04-25T02:38:57;91037.53;;;5.77;81.36
63493;BME280;49638;47.526;10.028;2023-04-25T02:41:57;91038.09;;;5.79;81.25
63493;BME280;49638;47.526;10.028;2023-04-25T02:44:58;91035.22;;;5.81;80.33
63493;BME280;49638;47.526;10.028;2023-04-25T02:47:58;91029.97;;;5.81;81.22
63493;BME280;49638;47.526;10.028;2023-04-25T02:50:58;91036.50;;;5.78;80.11
63493;BME280;49638;47.526;10.028;2023-04-25T02:53:58;91024.41;;;5.77;80.28
63493;BME280;49638;47.526;10.028;2023-04-25T02:56:59;91010.63;;;5.70;80.15
63493;BME280;49638;47.526;10.028;2023-04-25T02:59:59;91014.16;;;5.76;80.02
63493;BME280;49638;47.526;10.028;2023-04-25T03:02:59;91010.97;;;5.74;79.81
63493;BME280;49638;47.526;10.028;2023-04-25T03:06:00;91010.28;;;5.66;79.69
63493;BME280;49638;47.526;10.028;2023-04-25T03:09:00;91014.03;;;5.70;79.57
63493;BME280;49638;47.526;10.028;2023-04-25T03:12:00;91004.03;;;5.67;80.00
63493;BME280;49638;47.526;10.028;2023-04-25T03:15:01;91024.06;;;5.74;79.61
63493;BME280;49638;47.526;10.028;2023-04-25T03:18:02;91015.66;;;5.72;79.61
63493;BME280;49638;47.526;10.028;2023-04-25T03:21:02;91010.88;;;5.68;79.46
63493;BME280;49638;47.526;10.028;2023-04-25T03:24:03;91007.69;;;5.66;79.31
63493;BME280;49638;47.526;10.028;2023-04-25T03:27:04;90997.19;;;5.66;79.34
63493;BME280;49638;47.526;10.028;2023-04-25T03:30:05;91000.59;;;5.67;79.26
63493;BME280;49638;47.526;10.028;2023-04-25T03:33:06;91018.38;;;5.77;79.20
63493;BME280;49638;47.526;10.028;2023-04-25T03:36:07;91004.72;;;5.75;78.71
63493;BME280;49638;47.526;10.028;2023-04-25T03:39:07;91009.00;;;5.81;78.84
63493;BME280;49638;47.526;10.028;2023-04-25T03:42:07;91002.56;;;5.72;78.72
63493;BME280;49638;47.526;10.028;2023-04-25T03:45:08;91007.88;;;5.77;78.87
63493;BME280;49638;47.526;10.028;2023-04-25T03:48:08;91009.72;;;5.76;79.14
63493;BME280;49638;47.526;10.028;2023-04-25T03:51:08;91016.78;;;5.76;79.06
63493;BME280;49638;47.526;10.028;2023-04-25T03:54:08;91007.88;;;5.77;79.33
63493;BME280;49638;47.526;10.028;2023-04-25T03:57:09;91013.84;;;5.72;79.51
63493;BME280;49638;47.526;10.028;2023-04-25T04:00:10;91008.69;;;5.77;79.50
63493;BME280;49638;47.526;10.028;2023-04-25T04:03:11;91008.13;;;5.75;79.78
63493;BME280;49638;47.526;10.028;2023-04-25T04:06:11;91016.00;;;5.75;79.93
63493;BME280;49638;47.526;10.028;2023-04-25T04:09:13;91016.78;;;5.76;80.12
63493;BME280;49638;47.526;10.028;2023-04-25T04:12:13;91014.63;;;5.73;80.32
63493;BME280;49638;47.526;10.028;2023-04-25T04:15:13;91026.81;;;5.79;79.94
63493;BME280;49638;47.526;10.028;2023-04-25T04:18:14;91031.47;;;5.77;80.30
63493;BME280;49638;47.526;10.028;2023-04-25T04:21:14;91025.03;;;5.67;80.63
63493;BME280;49638;47.526;10.028;2023-04-25T04:24:15;91021.81;;;5.65;80.23
63493;BME280;49638;47.526;10.028;2023-04-25T04:27:20;91021.69;;;5.60;80.61
63493;BME280;49638;47.526;10.028;2023-04-25T04:30:23;91029.00;;;5.58;81.12
63493;BME280;49638;47.526;10.028;2023-04-25T04:33:29;91023.78;;;5.58;81.00
63493;BME280;49638;47.526;10.028;2023-04-25T04:36:30;91013.06;;;5.48;81.28
63493;BME280;49638;47.526;10.028;2023-04-25T04:39:31;91020.56;;;5.56;81.43
63493;BME280;49638;47.526;10.028;2023-04-25T04:42:31;91025.69;;;5.63;81.48
63493;BME280;49638;47.526;10.028;2023-04-25T04:45:31;91028.31;;;5.63;81.62
63493;BME280;49638;47.526;10.028;2023-04-25T04:48:32;91025.69;;;5.63;81.57
63493;BME280;49638;47.526;10.028;2023-04-25T04:51:34;91037.91;;;5.57;81.79
63493;BME280;49638;47.526;10.028;2023-04-25T04:54:35;91035.84;;;5.59;81.77
63493;BME280;49638;47.526;10.028;2023-04-25T04:57:35;91036.41;;;5.61;81.56
63493;BME280;49638;47.526;10.028;2023-04-25T05:00:36;91039.50;;;5.58;81.80
63493;BME280;49638;47.526;10.028;2023-04-25T05:03:36;91037.53;;;5.65;82.26
63493;BME280;49638;47.526;10.028;2023-04-25T05:06:36;91034.13;;;5.65;81.98
63493;BME280;49638;47.526;10.028;2023-04-25T05:09:36;91037.94;;;6.09;81.39
63493;BME280;49638;47.526;10.028;2023-04-25T05:12:37;91035.66;;;6.42;80.76
63493;BME280;49638;47.526;10.028;2023-04-25T05:15:37;91032.34;;;6.46;81.00
63493;BME280;49638;47.526;10.028;2023-04-25T05:18:39;91009.31;;;6.82;79.60
63493;BME280;49638;47.526;10.028;2023-04-25T05:21:39;91023.25;;;7.50;79.33
63493;BME280;49638;47.526;10.028;2023-04-25T05:24:39;91021.22;;;7.74;79.30
63493;BME280;49638;47.526;10.028;2023-04-25T05:27:40;91006.13;;;7.86;78.70
63493;BME280;49638;47.526;10.028;2023-04-25T05:30:40;91006.50;;;7.95;78.82
63493;BME280;49638;47.526;10.028;2023-04-25T05:33:40;91027.22;;;7.91;78.73
63493;BME280;49638;47.526;10.028;2023-04-25T05:36:40;91022.34;;;7.78;78.97
63493;BME280;49638;47.526;10.028;2023-04-25T05:39:41;91013.34;;;7.57;79.25
63493;BME280;49638;47.526;10.028;2023-04-25T05:42:41;91016.97;;;7.51;79.44
63493;BME280;49638;47.526;10.028;2023-04-25T05:45:41;91014.59;;;7.32;79.12
63493;BME280;49638;47.526;10.028;2023-04-25T05:48:42;91021.94;;;7.30;79.09
63493;BME280;49638;47.526;10.028;2023-04-25T05:51:42;91028.69;;;7.26;78.87
63493;BME280;49638;47.526;10.028;2023-04-25T05:54:43;91022.63;;;7.26;78.98
63493;BME280;49638;47.526;10.028;2023-04-25T05:57:43;91022.41;;;7.27;79.03
63493;BME280;49638;47.526;10.028;2023-04-25T06:00:45;91010.53;;;7.25;78.67
63493;BME280;49638;47.526;10.028;2023-04-25T06:03:46;91014.19;;;7.41;78.31
63493;BME280;49638;47.526;10.028;2023-04-25T06:06:46;91013.88;;;7.76;77.50
63493;BME280;49638;47.526;10.028;2023-04-25T06:09:46;91019.66;;;8.17;76.98
63493;BME280;49638;47.526;10.028;2023-04-25T06:12:47;91013.19;;;8.46;77.17
63493;BME280;49638;47.526;10.028;2023-04-25T06:15:47;91016.25;;;8.38;76.66
63493;BME280;49638;47.526;10.028;2023-04-25T06:18:47;91012.63;;;8.22;76.46
63493;BME280;49638;47.526;10.028;2023-04-25T06:21:48;91015.44;;;8.16;76.97
63493;BME280;49638;47.526;10.028;2023-04-25T06:24:48;91012.25;;;8.14;76.58
63493;BME280;49638;47.526;10.028;2023-04-25T06:27:48;90989.22;;;8.04;76.85
63493;BME280;49638;47.526;10.028;2023-04-25T06:30:48;90993.16;;;8.01;76.88
63493;BME280;49638;47.526;10.028;2023-04-25T06:33:49;91002.16;;;8.05;76.75
63493;BME280;49638;47.526;10.028;2023-04-25T06:36:49;90993.53;;;8.10;76.77
63493;BME280;49638;47.526;10.028;2023-04-25T06:39:49;90990.88;;;8.10;76.89
63493;BME280;49638;47.526;10.028;2023-04-25T06:42:50;90995.53;;;8.03;76.24
63493;BME280;49638;47.526;10.028;2023-04-25T06:45:50;90994.97;;;8.01;76.14
63493;BME280;49638;47.526;10.028;2023-04-25T06:48:50;90977.19;;;7.86;75.34
63493;BME280;49638;47.526;10.028;2023-04-25T06:51:51;90978.22;;;8.07;74.99
63493;BME280;49638;47.526;10.028;2023-04-25T06:54:51;90978.78;;;8.58;74.21
63493;BME280;49638;47.526;10.028;2023-04-25T06:57:51;90958.25;;;8.87;73.46
63493;BME280;49638;47.526;10.028;2023-04-25T07:00:52;90978.66;;;9.39;73.05
63493;BME280;49638;47.526;10.028;2023-04-25T07:03:52;90976.25;;;9.75;72.03
63493;BME280;49638;47.526;10.028;2023-04-25T07:06:52;90977.44;;;10.00;71.35
63493;BME280;49638;47.526;10.028;2023-04-25T07:09:53;90971.97;;;10.16;70.38
63493;BME280;49638;47.526;10.028;2023-04-25T07:12:53;90965.72;;;10.38;69.88
63493;BME280;49638;47.526;10.028;2023-04-25T07:15:53;90970.78;;;10.55;69.20
63493;BME280;49638;47.526;10.028;2023-04-25T07:18:54;90967.09;;;10.61;68.64
63493;BME280;49638;47.526;10.028;2023-04-25T07:21:54;90954.94;;;10.50;68.21
63493;BME280;49638;47.526;10.028;2023-04-25T07:24:55;90972.38;;;10.61;66.93
63493;BME280;49638;47.526;10.028;2023-04-25T07:27:55;90970.19;;;10.42;68.09
63493;BME280;49638;47.526;10.028;2023-04-25T07:30:55;90964.69;;;10.59;67.75
63493;BME280;49638;47.526;10.028;2023-04-25T07:33:55;90963.41;;;10.72;67.92
63493;BME280;49638;47.526;10.028;2023-04-25T07:36:56;90969.22;;;10.79;67.96
63493;BME280;49638;47.526;10.028;2023-04-25T07:39:56;90954.16;;;10.80;67.37
63493;BME280;49638;47.526;10.028;2023-04-25T07:42:56;90967.09;;;10.66;67.33
63493;BME280;49638;47.526;10.028;2023-04-25T07:45:57;90962.06;;;10.54;67.17
63493;BME280;49638;47.526;10.028;2023-04-25T07:48:57;90960.72;;;10.47;66.96
63493;BME280;49638;47.526;10.028;2023-04-25T07:51:57;90950.38;;;10.35;66.65
63493;BME280;49638;47.526;10.028;2023-04-25T07:54:57;90966.78;;;10.37;66.86
63493;BME280;49638;47.526;10.028;2023-04-25T07:57:58;90962.78;;;10.29;67.07
63493;BME280;49638;47.526;10.028;2023-04-25T08:00:59;90974.31;;;10.13;67.02
63493;BME280;49638;47.526;10.028;2023-04-25T08:03:59;90974.56;;;10.11;67.40
63493;BME280;49638;47.526;10.028;2023-04-25T08:06:59;90981.16;;;10.09;67.46
63493;BME280;49638;47.526;10.028;2023-04-25T08:10:00;90975.84;;;10.04;67.14
63493;BME280;49638;47.526;10.028;2023-04-25T08:13:00;90988.22;;;9.98;67.52
63493;BME280;49638;47.526;10.028;2023-04-25T08:16:00;90987.44;;;9.92;66.98
63493;BME280;49638;47.526;10.028;2023-04-25T08:19:00;90993.50;;;9.93;66.89
63493;BME280;49638;47.526;10.028;2023-04-25T08:22:01;90994.31;;;9.99;66.92
63493;BME280;49638;47.526;10.028;2023-04-25T08:25:01;90987.94;;;9.89;66.89
63493;BME280;49638;47.526;10.028;2023-04-25T08:28:01;90999.00;;;9.91;66.98
63493;BME280;49638;47.526;10.028;2023-04-25T08:31:03;91000.44;;;10.14;66.40
63493;BME280;49638;47.526;10.028;2023-04-25T08:34:03;91011.91;;;10.35;66.47
63493;BME280;49638;47.526;10.028;2023-04-25T08:37:03;91024.09;;;10.36;66.65
63493;BME280;49638;47.526;10.028;2023-04-25T08:40:04;91020.56;;;10.21;66.58
63493;BME280;49638;47.526;10.028;2023-04-25T08:43:07;91055.53;;;9.95;66.92
63493;BME280;49638;47.526;10.028;2023-04-25T08:46:12;91064.19;;;9.48;67.84
63493;BME280;49638;47.526;10.028;2023-04-25T08:49:12;91077.91;;;8.91;68.62
63493;BME280;49638;47.526;10.028;2023-04-25T08:52:13;91091.22;;;8.52;69.67
63493;BME280;49638;47.526;10.028;2023-04-25T08:55:14;91111.84;;;8.22;70.55
63493;BME280;49638;47.526;10.028;2023-04-25T08:58:16;91116.88;;;7.85;71.41
63493;BME280;49638;47.526;10.028;2023-04-25T09:01:18;91123.56;;;7.58;71.67
63493;BME280;49638;47.526;10.028;2023-04-25T09:04:18;91121.28;;;7.17;72.45
63493;BME280;49638;47.526;10.028;2023-04-25T09:07:20;91106.69;;;6.92;72.99
63493;BME280;49638;47.526;10.028;2023-04-25T09:10:21;91112.28;;;6.67;73.47
63493;BME280;49638;47.526;10.028;2023-04-25T09:13:27;91101.84;;;6.44;74.52
63493;BME280;49638;47.526;10.028;2023-04-25T09:16:28;91118.31;;;6.39;74.65
63493;BME280;49638;47.526;10.028;2023-04-25T09:19:33;91129.25;;;6.36;75.10
63493;BME280;49638;47.526;10.028;2023-04-25T09:22:36;91130.06;;;6.25;75.27
63493;BME280;49638;47.526;10.028;2023-04-25T09:25:37;91129.72;;;6.21;75.60
63493;BME280;49638;47.526;10.028;2023-04-25T09:28:39;91142.19;;;6.14;75.80
63493;BME280;49638;47.526;10.028;2023-04-25T09:31:40;91156.34;;;6.13;76.33
63493;BME280;49638;47.526;10.028;2023-04-25T09:34:42;91150.41;;;6.06;76.13
63493;BME280;49638;47.526;10.028;2023-04-25T09:37:42;91151.78;;;5.97;76.49
63493;BME280;49638;47.526;10.028;2023-04-25T09:40:44;91162.84;;;5.99;76.66
63493;BME280;49638;47.526;10.028;2023-04-25T09:43:45;91163.31;;;5.96;77.06
63493;BME280;49638;47.526;10.028;2023-04-25T09:46:49;91168.56;;;5.96;77.84
63493;BME280;49638;47.526;10.028;2023-04-25T09:49:53;91161.94;;;6.05;78.09
63493;BME280;49638;47.526;10.028;2023-04-25T09:53:05;91158.50;;;6.16;79.18
63493;BME280;49638;47.526;10.028;2023-04-25T09:56:07;91162.13;;;6.27;78.02
63493;BME280;49638;47.526;10.028;2023-04-25T09:59:08;91167.22;;;6.45;78.25
63493;BME280;49638;47.526;10.028;2023-04-25T10:02:10;91162.88;;;6.51;78.89
63493;BME280;49638;47.526;10.028;2023-04-25T10:05:11;91159.56;;;6.55;78.96
63493;BME280;49638;47.526;10.028;2023-04-25T10:08:12;91150.88;;;6.67;79.30
63493;BME280;49638;47.526;10.028;2023-04-25T10:11:14;91143.25;;;6.94;79.40
63493;BME280;49638;47.526;10.028;2023-04-25T10:14:16;91152.19;;;7.09;79.13
63493;BME280;49638;47.526;10.028;2023-04-25T10:17:17;91130.97;;;7.28;79.14
63493;BME280;49638;47.526;10.028;2023-04-25T10:20:17;91123.78;;;7.40;79.21
63493;BME280;49638;47.526;10.028;2023-04-25T10:23:18;91123.09;;;7.45;78.91
63493;BME280;49638;47.526;10.028;2023-04-25T10:26:20;91129.06;;;7.57;78.43
63493;BME280;49638;47.526;10.028;2023-04-25T10:29:26;91123.25;;;7.72;78.77
63493;BME280;49638;47.526;10.028;2023-04-25T10:32:26;91113.28;;;7.74;78.27
63493;BME280;49638;47.526;10.028;2023-04-25T10:35:28;91120.28;;;7.85;78.65
63493;BME280;49638;47.526;10.028;2023-04-25T10:38:30;91123.56;;;7.92;78.21
63493;BME280;49638;47.526;10.028;2023-04-25T10:41:30;91128.34;;;7.95;78.58
63493;BME280;49638;47.526;10.028;2023-04-25T10:44:31;91121.13;;;8.07;78.69
63493;BME280;49638;47.526;10.028;2023-04-25T10:47:35;91131.72;;;8.13;79.31
63493;BME280;49638;47.526;10.028;2023-04-25T10:50:39;91132.13;;;8.04;78.94
63493;BME280;49638;47.526;10.028;2023-04-25T10:53:39;91136.72;;;7.92;79.10
63493;BME280;49638;47.526;10.028;2023-04-25T10:56:41;91134.72;;;7.82;78.93
63493;BME280;49638;47.526;10.028;2023-04-25T10:59:44;91144.78;;;7.69;78.72
63493;BME280;49638;47.526;10.028;2023-04-25T11:02:51;91155.28;;;7.52;78.52
63493;BME280;49638;47.526;10.028;2023-04-25T11:05:52;91150.41;;;7.44;78.89
63493;BME280;49638;47.526;10.028;2023-04-25T11:08:53;91158.53;;;7.42;79.81
63493;BME280;49638;47.526;10.028;2023-04-25T11:11:55;91154.38;;;7.29;79.69
63493;BME280;49638;47.526;10.028;2023-04-25T11:15:04;91164.56;;;7.26;80.22
63493;BME280;49638;47.526;10.028;2023-04-25T11:18:04;91152.66;;;7.06;80.25
63493;BME280;49638;47.526;10.028;2023-04-25T11:21:05;91170.16;;;7.01;80.08
63493;BME280;49638;47.526;10.028;2023-04-25T11:24:06;91169.97;;;6.91;80.44
63493;BME280;49638;47.526;10.028;2023-04-25T11:27:06;91163.94;;;6.78;80.32
63493;BME280;49638;47.526;10.028;2023-04-25T11:30:14;91159.88;;;6.71;82.17
63493;BME280;49638;47.526;10.028;2023-04-25T11:33:16;91165.56;;;6.79;81.23
63493;BME280;49638;47.526;10.028;2023-04-25T11:36:16;91173.97;;;6.93;81.26
63493;BME280;49638;47.526;10.028;2023-04-25T11:39:17;91166.22;;;7.15;81.57
63493;BME280;49638;47.526;10.028;2023-04-25T11:42:18;91165.38;;;7.43;81.72
63493;BME280;49638;47.526;10.028;2023-04-25T11:45:18;91171.44;;;7.61;81.56
63493;BME280;49638;47.526;10.028;2023-04-25T11:48:19;91158.06;;;7.62;81.52
63493;BME280;49638;47.526;10.028;2023-04-25T11:51:20;91163.06;;;7.47;81.51
63493;BME280;49638;47.526;10.028;2023-04-25T11:54:20;91172.06;;;7.34;81.27
63493;BME280;49638;47.526;10.028;2023-04-25T11:57:21;91174.09;;;7.15;81.07
63493;BME280;49638;47.526;10.028;2023-04-25T12:00:23;91185.75;;;6.91;80.84
63493;BME280;49638;47.526;10.028;2023-04-25T12:03:23;91181.69;;;6.71;81.05
63493;BME280;49638;47.526;10.028;2023-04-25T12:06:29;91187.72;;;6.72;80.97
63493;BME280;49638;47.526;10.028;2023-04-25T12:09:31;91192.16;;;6.83;81.55
63493;BME280;49638;47.526;10.028;2023-04-25T12:12:32;91181.47;;;7.01;81.99
63493;BME280;49638;47.526;10.028;2023-04-25T12:15:33;91181.38;;;7.25;82.40
63493;BME280;49638;47.526;10.028;2023-04-25T12:18:35;91166.66;;;7.41;82.33
63493;BME280;49638;47.526;10.028;2023-04-25T12:21:36;91154.09;;;7.59;82.19
63493;BME280;49638;47.526;10.028;2023-04-25T12:24:36;91160.13;;;7.94;82.46
63493;BME280;49638;47.526;10.028;2023-04-25T12:27:36;91162.03;;;8.15;82.38
63493;BME280;49638;47.526;10.028;2023-04-25T12:33:52;91177.44;;;8.06;81.38
63493;BME280;49638;47.526;10.028;2023-04-25T12:36:53;91184.38;;;7.96;81.45
63493;BME280;49638;47.526;10.028;2023-04-25T12:39:53;91173.59;;;7.80;80.85
63493;BME280;49638;47.526;10.028;2023-04-25T12:42:54;91200.94;;;7.63;80.40
63493;BME280;49638;47.526;10.028;2023-04-25T12:45:55;91215.78;;;7.40;80.96
63493;BME280;49638;47.526;10.028;2023-04-25T12:48:56;91221.84;;;7.24;81.16
63493;BME280;49638;47.526;10.028;2023-04-25T12:51:57;91224.16;;;7.08;81.27
63493;BME280;49638;47.526;10.028;2023-04-25T12:54:58;91210.06;;;6.86;80.97
63493;BME280;49638;47.526;10.028;2023-04-25T12:57:58;91234.72;;;6.97;81.04
63493;BME280;49638;47.526;10.028;2023-04-25T13:00:58;91225.94;;;6.91;81.62
63493;BME280;49638;47.526;10.028;2023-04-25T13:03:59;91230.59;;;6.89;81.63
63493;BME280;49638;47.526;10.028;2023-04-25T13:06:59;91231.91;;;6.86;81.61
63493;BME280;49638;47.526;10.028;2023-04-25T13:09:59;91242.28;;;6.93;81.96
63493;BME280;49638;47.526;10.028;2023-04-25T13:13:00;91236.53;;;6.96;81.76
63493;BME280;49638;47.526;10.028;2023-04-25T13:16:01;91248.00;;;6.90;82.18
63493;BME280;49638;47.526;10.028;2023-04-25T13:19:02;91253.69;;;6.87;81.77
63493;BME280;49638;47.526;10.028;2023-04-25T13:22:02;91260.34;;;6.78;81.80
63493;BME280;49638;47.526;10.028;2023-04-25T13:25:05;91264.44;;;6.74;82.11
63493;BME280;49638;47.526;10.028;2023-04-25T13:28:06;91277.47;;;6.69;82.57
63493;BME280;49638;47.526;10.028;2023-04-25T13:31:06;91275.44;;;6.59;82.66
63493;BME280;49638;47.526;10.028;2023-04-25T13:34:07;91273.06;;;6.46;82.58
63493;BME280;49638;47.526;10.028;2023-04-25T13:37:07;91283.75;;;6.44;81.94
63493;BME280;49638;47.526;10.028;2023-04-25T13:40:09;91286.63;;;6.43;82.67
63493;BME280;49638;47.526;10.028;2023-04-25T13:43:10;91287.75;;;6.35;82.40
63493;BME280;49638;47.526;10.028;2023-04-25T13:46:10;91290.28;;;6.30;82.33
63493;BME280;49638;47.526;10.028;2023-04-25T13:49:11;91296.75;;;6.27;82.68
63493;BME280;49638;47.526;10.028;2023-04-25T13:52:12;91289.03;;;6.32;83.13
63493;BME280;49638;47.526;10.028;2023-04-25T13:55:12;91291.84;;;6.31;82.67
63493;BME280;49638;47.526;10.028;2023-04-25T13:58:12;91279.44;;;6.26;82.64
63493;BME280;49638;47.526;10.028;2023-04-25T14:01:12;91295.53;;;6.53;83.23
63493;BME280;49638;47.526;10.028;2023-04-25T14:04:13;91281.03;;;6.62;82.82
63493;BME280;49638;47.526;10.028;2023-04-25T14:07:14;91276.34;;;6.76;83.45
63493;BME280;49638;47.526;10.028;2023-04-25T14:10:17;91268.41;;;7.00;83.31
63493;BME280;49638;47.526;10.028;2023-04-25T14:13:18;91270.81;;;7.30;83.07
63493;BME280;49638;47.526;10.028;2023-04-25T14:16:18;91272.41;;;7.59;82.85
63493;BME280;49638;47.526;10.028;2023-04-25T14:19:20;91277.09;;;7.86;82.59
63493;BME280;49638;47.526;10.028;2023-04-25T14:22:20;91273.53;;;8.09;81.60
63493;BME280;49638;47.526;10.028;2023-04-25T14:25:22;91251.44;;;8.10;81.91
63493;BME280;49638;47.526;10.028;2023-04-25T14:28:22;91267.28;;;8.32;81.75
63493;BME280;49638;47.526;10.028;2023-04-25T14:31:22;91259.50;;;8.37;81.58
63493;BME280;49638;47.526;10.028;2023-04-25T14:34:23;91255.38;;;8.41;81.07
63493;BME280;49638;47.526;10.028;2023-04-25T14:37:23;91233.59;;;8.12;80.32
63493;BME280;49638;47.526;10.028;2023-04-25T14:40:23;91263.06;;;7.97;80.34
63493;BME280;49638;47.526;10.028;2023-04-25T14:43:24;91277.09;;;7.86;79.89
63493;BME280;49638;47.526;10.028;2023-04-25T14:46:24;91279.38;;;7.66;80.24
63493;BME280;49638;47.526;10.028;2023-04-25T14:49:25;91296.69;;;7.50;79.48
63493;BME280;49638;47.526;10.028;2023-04-25T14:52:26;91290.25;;;7.29;80.12
63493;BME280;49638;47.526;10.028;2023-04-25T14:55:27;91291.78;;;7.13;79.80
63493;BME280;49638;47.526;10.028;2023-04-25T14:58:27;91301.06;;;7.04;79.95
63493;BME280;49638;47.526;10.028;2023-04-25T15:01:27;91282.94;;;6.79;80.48
63493;BME280;49638;47.526;10.028;2023-04-25T15:04:28;91301.44;;;6.84;81.07
63493;BME280;49638;47.526;10.028;2023-04-25T15:07:28;91306.94;;;6.71;80.79
63493;BME280;49638;47.526;10.028;2023-04-25T15:10:29;91302.03;;;6.51;81.52
63493;BME280;49638;47.526;10.028;2023-04-25T15:13:29;91311.63;;;6.57;81.65
63493;BME280;49638;47.526;10.028;2023-04-25T15:16:29;91305.09;;;6.71;81.58
63493;BME280;49638;47.526;10.028;2023-04-25T15:19:30;91295.75;;;6.63;81.95
63493;BME280;49638;47.526;10.028;2023-04-25T15:22:31;91297.91;;;6.55;82.67
63493;BME280;49638;47.526;10.028;2023-04-25T15:25:31;91317.31;;;6.66;82.66
63493;BME280;49638;47.526;10.028;2023-04-25T15:28:31;91314.47;;;6.67;82.46
63493;BME280;49638;47.526;10.028;2023-04-25T15:31:33;91318.94;;;6.67;82.33
63493;BME280;49638;47.526;10.028;2023-04-25T15:34:33;91330.44;;;6.66;82.06
63493;BME280;49638;47.526;10.028;2023-04-25T15:37:35;91330.78;;;6.57;82.21
63493;BME280;49638;47.526;10.028;2023-04-25T15:40:35;91333.78;;;6.49;82.08
63493;BME280;49638;47.526;10.028;2023-04-25T15:43:36;91328.72;;;6.36;82.11
63493;BME280;49638;47.526;10.028;2023-04-25T15:46:37;91328.94;;;6.23;82.23
63493;BME280;49638;47.526;10.028;2023-04-25T15:49:38;91326.53;;;6.09;82.89
63493;BME280;49638;47.526;10.028;2023-04-25T15:52:38;91330.19;;;6.08;83.33
63493;BME280;49638;47.526;10.028;2023-04-25T15:55:38;91332.91;;;6.02;82.72
63493;BME280;49638;47.526;10.028;2023-04-25T15:58:39;91336.63;;;5.94;83.01
63493;BME280;49638;47.526;10.028;2023-04-25T16:01:39;91345.53;;;5.93;83.11